Time;durP1;ratioP1;P1;durP2;ratioP2;P2;SDS_P1;SDS_P2;PMS_P1;PMS_P2;Temp;Humidity;BMP_temperature;BMP_pressure;BME280_temperature;BME280_humidity;BME280_pressure;Samples;Min_cycle;Max_cycle;Signal;HPM_P1;HPM_P2
2021/04/10 00:05:23;;;;;;;3.27;2.33;;;;;;;9.86;57.60;98655.56;10541757;28;20178;-77
2021/04/10 00:10:42;;;;;;;3.37;1.63;;;;;;;9.78;58.54;98664.25;10541328;28;20564;-77
2021/04/10 00:16:01;;;;;;;3.17;2.00;;;;;;;9.70;59.96;98651.75;10524702;28;20177;-77
2021/04/10 00:21:20;;;;;;;2.23;1.97;;;;;;;9.57;60.00;98637.72;10541259;28;20178;-77
2021/04/10 00:26:40;;;;;;;2.73;2.53;;;;;;;9.68;59.47;98629.44;10540411;28;20237;-77
2021/04/10 00:31:58;;;;;;;1.47;1.30;;;;;;;9.42;60.44;98634.69;10538960;28;20249;-77
2021/04/10 00:37:17;;;;;;;4.10;2.10;;;;;;;9.54;59.74;98627.56;10540575;28;20177;-77
2021/04/10 00:42:37;;;;;;;2.10;1.80;;;;;;;9.71;58.61;98629.41;10525099;28;20174;-76
2021/04/10 00:47:56;;;;;;;5.07;2.03;;;;;;;9.54;60.58;98611.09;10523586;28;20181;-77
2021/04/10 00:53:17;;;;;;;6.80;2.57;;;;;;;9.42;61.07;98601.75;10538674;28;20598;-76
2021/04/10 00:58:36;;;;;;;2.63;2.40;;;;;;;9.26;61.75;98588.56;10524581;28;20276;-76
2021/04/10 01:03:57;;;;;;;3.30;2.30;;;;;;;9.15;62.56;98590.56;10538461;28;20190;-76
2021/04/10 01:09:16;;;;;;;8.00;3.37;;;;;;;9.10;63.44;98591.00;10539463;28;20214;-76
2021/04/10 01:14:58;;;;;;;1.80;1.70;;;;;;;8.89;63.82;98584.84;10537989;28;20178;-76
2021/04/10 01:20:46;;;;;;;3.40;2.27;;;;;;;8.75;64.67;98582.94;10539450;28;20173;-76
2021/04/10 01:26:32;;;;;;;1.73;1.57;;;;;;;8.62;64.81;98577.53;10539084;28;20249;-77
2021/04/10 01:31:54;;;;;;;2.40;1.40;;;;;;;8.65;66.74;98585.75;10537077;28;20201;-77
2021/04/10 01:37:20;;;;;;;1.90;1.50;;;;;;;8.54;67.27;98578.75;10539084;28;20201;-77
2021/04/10 01:42:40;;;;;;;4.17;1.80;;;;;;;8.48;68.48;98583.09;10538979;28;20645;-77
2021/04/10 01:48:05;;;;;;;2.00;1.70;;;;;;;8.42;69.04;98576.44;10537331;28;20186;-77
2021/04/10 01:53:25;;;;;;;3.10;2.60;;;;;;;8.31;69.00;98570.22;10538884;28;20178;-77
2021/04/10 01:58:46;;;;;;;1.80;1.60;;;;;;;8.36;69.41;98564.31;10523230;28;20190;-77
2021/04/10 02:04:06;;;;;;;4.03;1.77;;;;;;;8.58;67.91;98566.59;10542545;28;20182;-77
2021/04/10 02:09:26;;;;;;;3.27;1.57;;;;;;;8.83;68.49;98564.50;10546202;28;20209;-78
2021/04/10 02:14:46;;;;;;;5.90;2.87;;;;;;;8.76;71.59;98567.28;10544652;28;20170;-76
2021/04/10 02:20:10;;;;;;;1.77;1.47;;;;;;;8.57;75.11;98558.75;10546008;28;20635;-76
2021/04/10 02:25:29;;;;;;;3.00;1.60;;;;;;;8.53;75.32;98560.75;10530095;28;20233;-77
2021/04/10 02:30:49;;;;;;;1.93;1.83;;;;;;;8.85;72.02;98575.84;10544079;28;20691;-77
2021/04/10 02:36:13;;;;;;;4.00;2.23;;;;;;;9.17;68.56;98562.72;10529359;28;20169;-77
2021/04/10 02:41:34;;;;;;;4.83;1.80;;;;;;;8.89;73.15;98569.16;10529792;28;20534;-77
2021/04/10 02:46:57;;;;;;;4.07;1.50;;;;;;;8.88;75.10;98564.09;10528177;28;20182;-77
2021/04/10 02:52:25;;;;;;;5.03;2.27;;;;;;;8.86;75.68;98569.19;10528865;28;20206;-76
2021/04/10 02:57:44;;;;;;;2.03;1.57;;;;;;;8.81;74.10;98564.91;10544433;28;20198;-77
2021/04/10 03:03:04;;;;;;;2.03;1.60;;;;;;;8.90;73.07;98569.97;10542829;28;20572;-78
2021/04/10 03:08:24;;;;;;;1.70;1.17;;;;;;;9.11;74.04;98558.84;10528872;28;20566;-76
2021/04/10 03:13:43;;;;;;;1.60;1.00;;;;;;;9.25;69.41;98559.53;10543521;28;20182;-77
2021/04/10 03:19:05;;;;;;;2.00;1.63;;;;;;;9.34;67.67;98553.59;10542193;28;20181;-76
2021/04/10 03:24:25;;;;;;;1.47;1.30;;;;;;;9.40;66.78;98563.75;10527929;28;20214;-76
2021/04/10 03:29:44;;;;;;;4.67;1.80;;;;;;;9.33;68.08;98552.06;10541780;28;20714;-77
2021/04/10 03:35:03;;;;;;;2.47;2.27;;;;;;;9.54;66.85;98552.63;10543139;28;20178;-77
2021/04/10 03:40:23;;;;;;;2.60;1.87;;;;;;;9.49;67.55;98549.56;10542954;28;20162;-76
2021/04/10 03:45:42;;;;;;;1.37;1.27;;;;;;;9.58;67.48;98561.63;10526041;28;20600;-77
2021/04/10 03:51:01;;;;;;;2.43;1.73;;;;;;;9.62;67.33;98556.88;10541953;28;20209;-76
2021/04/10 03:56:21;;;;;;;5.33;1.77;;;;;;;9.73;67.34;98557.59;10542211;28;20273;-77
2021/04/10 04:01:39;;;;;;;1.40;1.30;;;;;;;9.72;67.27;98558.75;10540497;28;20170;-77
2021/04/10 04:06:58;;;;;;;3.40;2.03;;;;;;;9.95;67.02;98558.94;10534074;28;20240;-76
2021/04/10 04:12:17;;;;;;;2.67;1.37;;;;;;;10.14;67.31;98555.63;10540513;28;20579;-76
2021/04/10 04:17:36;;;;;;;1.57;1.37;;;;;;;10.30;68.20;98569.59;10540042;28;20173;-77
2021/04/10 04:22:56;;;;;;;1.70;1.50;;;;;;;10.25;69.25;98568.09;10525960;28;20564;-76
2021/04/10 04:28:17;;;;;;;2.67;1.83;;;;;;;10.40;69.74;98585.97;10539889;28;20213;-77
2021/04/10 04:33:36;;;;;;;1.07;0.93;;;;;;;10.61;69.22;98592.00;10523922;28;20201;-77
2021/04/10 04:38:55;;;;;;;1.20;1.07;;;;;;;10.70;68.71;98595.06;10517556;28;20561;-77
2021/04/10 04:44:14;;;;;;;3.93;1.20;;;;;;;10.73;68.95;98596.19;10525022;28;20208;-77
2021/04/10 04:49:33;;;;;;;1.10;1.00;;;;;;;10.81;68.92;98603.97;10539608;28;20206;-77
2021/04/10 04:54:52;;;;;;;2.10;0.90;;;;;;;10.87;68.79;98616.06;10539920;28;20547;-77
2021/04/10 05:00:11;;;;;;;1.57;1.03;;;;;;;10.82;69.96;98613.00;10538513;28;20589;-76
2021/04/10 05:05:30;;;;;;;1.07;0.90;;;;;;;10.83;70.48;98623.56;10539564;28;20632;-76
2021/04/10 05:10:49;;;;;;;1.17;0.83;;;;;;;10.77;71.13;98630.72;10523935;28;20202;-78
2021/04/10 05:16:08;;;;;;;4.23;1.20;;;;;;;10.82;71.63;98635.78;10538293;28;20528;-78
2021/04/10 05:21:27;;;;;;;1.03;0.67;;;;;;;10.73;72.13;98643.75;10523439;28;20174;-77
2021/04/10 05:26:46;;;;;;;8.00;1.10;;;;;;;10.72;72.68;98647.69;10538769;28;20221;-77
2021/04/10 05:32:06;;;;;;;1.00;0.90;;;;;;;10.70;72.71;98655.56;10537333;28;20209;-76
2021/04/10 05:37:24;;;;;;;1.17;1.03;;;;;;;10.74;72.72;98667.31;10543402;28;20178;-79
2021/04/10 05:42:44;;;;;;;1.10;0.97;;;;;;;10.71;73.03;98668.16;10532231;28;20786;-77
2021/04/10 05:48:03;;;;;;;1.10;0.83;;;;;;;10.72;72.98;98669.72;10545451;28;20186;-77
2021/04/10 05:53:22;;;;;;;1.77;1.10;;;;;;;10.71;74.30;98670.09;10530679;28;20232;-78
2021/04/10 05:58:41;;;;;;;5.43;2.07;;;;;;;10.66;75.82;98679.56;10531387;28;20205;-77
2021/04/10 06:04:00;;;;;;;1.40;1.20;;;;;;;10.61;76.29;98685.53;10545490;28;20628;-77
2021/04/10 06:09:19;;;;;;;11.73;2.87;;;;;;;10.47;78.01;98696.69;10546460;28;20206;-77
2021/04/10 06:14:38;;;;;;;1.97;1.77;;;;;;;10.49;78.55;98699.03;10545122;28;20178;-77
2021/04/10 06:19:57;;;;;;;1.47;1.37;;;;;;;10.42;80.16;98710.09;10546070;28;20174;-78
2021/04/10 06:25:17;;;;;;;2.53;2.33;;;;;;;10.47;81.48;98707.69;10530166;28;20707;-77
2021/04/10 06:30:36;;;;;;;4.80;3.53;;;;;;;10.61;80.42;98713.03;10544159;28;20213;-77
2021/04/10 06:35:55;;;;;;;7.30;1.67;;;;;;;10.60;82.41;98721.72;10530081;28;20252;-76
2021/04/10 06:41:14;;;;;;;3.23;1.90;;;;;;;10.69;84.35;98724.78;10545306;28;20182;-76
2021/04/10 06:46:34;;;;;;;3.37;2.80;;;;;;;10.55;86.61;98731.19;10527828;28;20256;-78
2021/04/10 06:51:53;;;;;;;3.03;1.70;;;;;;;10.48;88.39;98735.94;10544508;28;20201;-78
2021/04/10 06:57:24;;;;;;;2.07;1.87;;;;;;;10.44;89.83;98746.22;10544378;28;20550;-76
2021/04/10 07:02:45;;;;;;;2.63;1.80;;;;;;;10.43;93.73;98745.41;10543104;28;20563;-77
2021/04/10 07:08:06;;;;;;;1.80;1.70;;;;;;;10.42;95.33;98746.59;10544135;28;20178;-77
2021/04/10 07:13:25;;;;;;;1.70;1.57;;;;;;;10.40;99.29;98750.94;10543150;28;20241;-76
2021/04/10 07:18:45;;;;;;;2.17;1.00;;;;;;;10.39;100.00;98757.63;10542471;28;20642;-76
2021/04/10 07:24:05;;;;;;;1.50;1.33;;;;;;;10.45;100.00;98754.06;10543177;28;20170;-76
2021/04/10 07:29:40;;;;;;;3.23;1.70;;;;;;;10.44;100.00;98766.25;10542566;28;20198;-76
2021/04/10 07:35:01;;;;;;;3.20;1.57;;;;;;;10.40;100.00;98762.75;10543196;28;20621;-78
2021/04/10 07:40:26;;;;;;;2.27;1.50;;;;;;;10.47;100.00;98772.88;10527613;28;20178;-76
2021/04/10 07:45:45;;;;;;;2.40;2.00;;;;;;;10.56;100.00;98782.25;10526193;28;20532;-77
2021/04/10 07:51:12;;;;;;;1.47;1.00;;;;;;;10.60;100.00;98791.25;10542054;28;20205;-78
2021/04/10 07:56:51;;;;;;;1.53;0.90;;;;;;;10.57;100.00;98796.78;10542229;28;20579;-77
2021/04/10 08:02:12;;;;;;;4.60;4.30;;;;;;;10.71;100.00;98804.91;10539835;28;20260;-78
2021/04/10 08:07:35;;;;;;;13.87;6.20;;;;;;;10.85;100.00;98804.78;10541757;28;20174;-78
2021/04/10 08:13:08;;;;;;;7.00;2.97;;;;;;;10.92;100.00;98821.22;10525530;28;20216;-78
2021/04/10 08:18:27;;;;;;;5.03;3.90;;;;;;;10.89;100.00;98827.53;10540070;28;20174;-77
2021/04/10 08:23:48;;;;;;;11.30;6.03;;;;;;;10.97;100.00;98834.53;10541221;28;20210;-78
2021/04/10 08:29:07;;;;;;;1.20;1.10;;;;;;;11.02;100.00;98843.16;10540618;28;20213;-77
2021/04/10 08:34:26;;;;;;;7.97;4.50;;;;;;;11.04;100.00;98843.53;10539890;28;20178;-77
2021/04/10 08:39:48;;;;;;;1.43;1.33;;;;;;;11.02;100.00;98850.63;10525144;28;20253;-76
2021/04/10 08:45:09;;;;;;;1.33;1.23;;;;;;;10.99;100.00;98854.97;10523777;28;20178;-78
2021/04/10 08:50:35;;;;;;;2.37;1.97;;;;;;;11.05;99.77;98864.34;10539877;28;20296;-77
2021/04/10 08:55:55;;;;;;;5.20;1.40;;;;;;;11.08;95.90;98866.28;10539802;28;20202;-77
2021/04/10 09:01:23;;;;;;;1.87;1.47;;;;;;;11.26;95.25;98858.63;10538611;28;20257;-76
2021/04/10 09:06:46;;;;;;;3.13;1.83;;;;;;;12.28;86.16;98854.25;10524563;28;20170;-76
2021/04/10 09:12:24;;;;;;;1.83;1.63;;;;;;;12.53;82.50;98865.69;10523655;28;20627;-76
2021/04/10 09:18:04;;;;;;;2.27;1.93;;;;;;;12.46;82.31;98868.56;10538340;28;20202;-76
2021/04/10 09:23:23;;;;;;;2.40;2.20;;;;;;;12.46;80.85;98873.31;10539335;28;20170;-76
2021/04/10 09:28:55;;;;;;;6.47;3.47;;;;;;;12.08;80.34;98883.69;10523251;28;20241;-76
2021/04/10 09:34:45;;;;;;;2.00;1.67;;;;;;;12.19;79.79;98889.84;10537886;28;20178;-76
2021/04/10 09:40:42;;;;;;;4.90;1.40;;;;;;;12.04;81.37;98880.19;10538896;28;20166;-77
2021/04/10 09:46:01;;;;;;;2.40;1.57;;;;;;;12.00;79.85;98876.69;10537495;28;20198;-77
2021/04/10 09:51:21;;;;;;;1.70;1.23;;;;;;;12.40;81.92;98881.28;10538430;28;20317;-77
2021/04/10 09:56:40;;;;;;;1.70;1.60;;;;;;;12.78;78.26;98880.69;10523198;28;20683;-77
2021/04/10 10:01:59;;;;;;;2.00;1.53;;;;;;;12.59;78.69;98885.31;10537349;28;20178;-78
2021/04/10 10:07:22;;;;;;;1.70;1.53;;;;;;;12.13;79.09;98897.00;10538497;28;20583;-77
2021/04/10 10:12:41;;;;;;;1.10;0.93;;;;;;;11.94;79.50;98894.91;10522579;28;20745;-77
2021/04/10 10:18:26;;;;;;;1.50;1.40;;;;;;;11.88;80.06;98893.00;10537194;28;20256;-77
2021/04/10 10:23:51;;;;;;;1.10;0.80;;;;;;;11.93;79.44;98891.75;10525798;28;20260;-77
2021/04/10 10:29:14;;;;;;;1.20;0.97;;;;;;;11.88;80.68;98901.28;10530308;28;20745;-76
2021/04/10 10:34:32;;;;;;;1.73;1.63;;;;;;;11.79;81.67;98905.72;10530074;28;20205;-76
2021/04/10 10:39:52;;;;;;;1.20;1.00;;;;;;;11.83;79.73;98901.72;10529883;28;20166;-78
2021/04/10 10:45:11;;;;;;;1.07;0.80;;;;;;;11.69;80.23;98896.38;10543963;28;20194;-77
2021/04/10 10:50:30;;;;;;;1.60;1.10;;;;;;;11.94;80.11;98897.66;10544676;28;20205;-78
2021/04/10 10:56:13;;;;;;;2.80;1.17;;;;;;;11.77;78.54;98895.09;10544740;28;20554;-77
2021/04/10 11:01:41;;;;;;;1.47;1.37;;;;;;;12.11;76.66;98896.66;10543286;28;20174;-76
2021/04/10 11:07:03;;;;;;;2.43;1.30;;;;;;;12.18;74.89;98907.59;10544307;28;20178;-76
2021/04/10 11:12:23;;;;;;;2.53;1.53;;;;;;;12.16;74.52;98907.22;10543698;28;20210;-77
2021/04/10 11:17:42;;;;;;;1.70;1.07;;;;;;;12.16;73.91;98907.22;10542592;28;20174;-76
2021/04/10 11:23:06;;;;;;;1.43;1.33;;;;;;;12.05;74.30;98886.50;10528390;28;20178;-77
2021/04/10 11:28:34;;;;;;;2.10;1.37;;;;;;;11.95;74.74;98888.16;10542768;28;20221;-77
2021/04/10 11:33:52;;;;;;;1.53;1.30;;;;;;;11.94;74.47;98889.38;10541739;28;20620;-77
2021/04/10 11:39:12;;;;;;;4.20;1.70;;;;;;;11.86;75.13;98889.09;10542232;28;20655;-78
2021/04/10 11:44:38;;;;;;;7.07;1.83;;;;;;;12.02;74.86;98882.59;10541333;28;20190;-76
2021/04/10 11:50:09;;;;;;;1.13;1.00;;;;;;;12.11;75.10;98882.88;10542445;28;20201;-77
2021/04/10 11:55:28;;;;;;;2.13;2.03;;;;;;;11.97;74.04;98894.06;10542236;28;20210;-76
2021/04/10 12:00:47;;;;;;;3.30;1.43;;;;;;;11.96;74.87;98886.97;10540854;28;20605;-76
2021/04/10 12:06:33;;;;;;;1.60;1.10;;;;;;;12.19;73.51;98881.56;10541607;28;20174;-77
2021/04/10 12:11:52;;;;;;;1.20;0.77;;;;;;;12.29;72.42;98886.16;10541271;28;20571;-78
2021/04/10 12:17:12;;;;;;;1.10;0.93;;;;;;;12.28;72.83;98883.81;10540238;28;20174;-77
2021/04/10 12:22:31;;;;;;;1.10;0.70;;;;;;;11.98;73.90;98886.59;10541152;28;20186;-77
2021/04/10 12:27:50;;;;;;;1.53;1.10;;;;;;;12.21;73.36;98886.66;10540492;28;20600;-77
2021/04/10 12:33:09;;;;;;;2.37;2.00;;;;;;;12.21;73.16;98889.44;10523623;28;20201;-77
2021/04/10 12:38:28;;;;;;;3.77;1.03;;;;;;;12.31;72.69;98880.22;10540765;28;20170;-78
2021/04/10 12:43:47;;;;;;;1.60;1.30;;;;;;;12.29;73.68;98882.63;10540530;28;20632;-77
2021/04/10 12:49:07;;;;;;;9.07;2.03;;;;;;;12.57;71.03;98877.47;10522134;28;20620;-76
2021/04/10 12:54:26;;;;;;;3.60;2.40;;;;;;;12.75;71.13;98869.72;10524865;28;20593;-77
2021/04/10 12:59:44;;;;;;;3.10;1.90;;;;;;;12.91;70.08;98862.34;10538498;28;20190;-77
2021/04/10 13:05:04;;;;;;;1.87;1.40;;;;;;;12.58;70.95;98856.97;10539931;28;20194;-76
2021/04/10 13:10:23;;;;;;;1.30;1.20;;;;;;;12.81;69.25;98855.00;10524019;28;20290;-77
2021/04/10 13:15:42;;;;;;;1.10;0.87;;;;;;;12.75;69.58;98847.63;10538235;28;20178;-77
2021/04/10 13:21:01;;;;;;;1.60;1.47;;;;;;;13.21;67.99;98847.63;10539282;28;20186;-78
2021/04/10 13:26:20;;;;;;;4.03;2.23;;;;;;;13.61;65.71;98828.69;10538822;28;20253;-77
2021/04/10 13:31:41;;;;;;;1.97;0.83;;;;;;;14.44;64.41;98820.56;10537574;28;20582;-78
2021/04/10 13:37:00;;;;;;;1.20;1.07;;;;;;;14.83;60.77;98827.94;10523978;28;20640;-78
2021/04/10 13:42:19;;;;;;;1.63;1.47;;;;;;;14.27;61.70;98828.50;10523838;28;20190;-76
2021/04/10 13:47:38;;;;;;;8.03;1.77;;;;;;;14.01;63.31;98823.94;10537649;28;20166;-77
2021/04/10 13:52:57;;;;;;;2.77;1.23;;;;;;;14.13;63.36;98807.47;10538198;28;20292;-77
2021/04/10 13:58:16;;;;;;;1.33;1.23;;;;;;;14.02;63.10;98798.59;10542497;28;20177;-78
2021/04/10 14:03:36;;;;;;;1.40;1.30;;;;;;;13.42;65.09;98790.00;10545478;28;20189;-77
2021/04/10 14:08:55;;;;;;;1.40;1.27;;;;;;;13.54;64.58;98778.31;10546443;28;20166;-77
2021/04/10 14:14:14;;;;;;;2.10;1.57;;;;;;;13.80;64.41;98783.69;10545835;28;20170;-76
2021/04/10 14:19:33;;;;;;;1.40;1.10;;;;;;;13.75;63.79;98780.63;10545915;28;20198;-77
2021/04/10 14:24:52;;;;;;;6.97;1.50;;;;;;;14.08;62.98;98783.03;10545498;28;20209;-77
2021/04/10 14:30:17;;;;;;;22.90;2.23;;;;;;;13.24;65.98;98777.75;10544065;28;20210;-77
2021/04/10 14:35:39;;;;;;;5.10;2.53;;;;;;;13.29;65.74;98774.47;10529454;28;20170;-77
2021/04/10 14:40:58;;;;;;;1.50;1.33;;;;;;;13.30;65.85;98778.81;10529559;28;20171;-77
2021/04/10 14:46:17;;;;;;;4.07;1.20;;;;;;;13.39;65.88;98759.69;10528257;28;20163;-77
2021/04/10 14:51:36;;;;;;;1.57;1.17;;;;;;;13.56;64.72;98757.34;10544003;28;20590;-78
2021/04/10 14:56:55;;;;;;;2.50;1.83;;;;;;;13.97;65.36;98749.31;10544208;28;20581;-77
2021/04/10 15:02:15;;;;;;;1.37;1.27;;;;;;;14.42;61.33;98739.19;10543339;28;20206;-77
2021/04/10 15:07:34;;;;;;;4.73;2.10;;;;;;;14.48;61.68;98729.94;10544179;28;20174;-77
2021/04/10 15:12:53;;;;;;;1.60;1.50;;;;;;;14.76;59.89;98731.97;10543735;28;20285;-77
2021/04/10 15:18:12;;;;;;;2.23;1.50;;;;;;;14.86;59.57;98722.63;10542789;28;20671;-77
2021/04/10 15:23:31;;;;;;;1.40;1.03;;;;;;;14.75;60.20;98724.13;10543640;28;20182;-77
2021/04/10 15:28:50;;;;;;;1.97;1.23;;;;;;;14.55;61.32;98717.91;10542748;28;20249;-78
2021/04/10 15:34:10;;;;;;;1.50;1.40;;;;;;;14.15;63.17;98724.06;10526757;28;20535;-77
2021/04/10 15:39:29;;;;;;;1.50;1.40;;;;;;;14.32;62.76;98712.56;10543136;28;20533;-78
2021/04/10 15:44:50;;;;;;;4.50;3.00;;;;;;;14.11;64.19;98713.06;10541654;28;20182;-75
2021/04/10 15:50:09;;;;;;;2.60;2.40;;;;;;;14.31;63.63;98699.91;10542541;28;20194;-75
2021/04/10 15:55:28;;;;;;;2.27;2.10;;;;;;;14.20;64.38;98699.41;10542510;28;20211;-77
2021/04/10 16:00:48;;;;;;;8.00;1.97;;;;;;;14.42;64.79;98690.13;10525827;28;20254;-78
2021/04/10 16:06:07;;;;;;;6.43;2.53;;;;;;;14.39;63.75;98681.94;10541925;28;20186;-77
2021/04/10 16:11:26;;;;;;;4.00;2.27;;;;;;;14.11;65.02;98688.19;10525685;28;20210;-78
2021/04/10 16:16:45;;;;;;;2.97;1.93;;;;;;;13.84;66.31;98686.84;10540289;28;20177;-78
2021/04/10 16:22:04;;;;;;;2.03;1.37;;;;;;;13.74;66.96;98671.25;10540222;28;20180;-77
2021/04/10 16:27:23;;;;;;;6.37;2.63;;;;;;;13.92;66.72;98674.41;10540586;28;20222;-75
2021/04/10 16:32:43;;;;;;;3.07;1.30;;;;;;;13.93;67.12;98673.97;10524022;28;20675;-78
2021/04/10 16:38:02;;;;;;;6.67;1.87;;;;;;;13.98;66.13;98667.13;10525618;28;20178;-77
2021/04/10 16:43:21;;;;;;;2.63;1.07;;;;;;;13.89;66.19;98673.25;10524895;28;20539;-77
2021/04/10 16:48:40;;;;;;;1.40;1.20;;;;;;;13.84;65.85;98662.72;10539243;28;20692;-77
2021/04/10 16:54:00;;;;;;;1.13;0.80;;;;;;;13.68;66.23;98657.16;10540016;28;20245;-79
2021/04/10 16:59:19;;;;;;;1.37;1.00;;;;;;;13.85;65.39;98644.16;10540019;28;20174;-75
2021/04/10 17:04:38;;;;;;;1.30;0.87;;;;;;;13.65;65.51;98652.47;10524651;28;20174;-75
2021/04/10 17:09:57;;;;;;;1.77;1.37;;;;;;;13.57;65.93;98642.81;10539488;28;20213;-75
2021/04/10 17:15:20;;;;;;;1.87;1.00;;;;;;;13.55;66.37;98650.75;10523127;28;20182;-75
2021/04/10 17:20:42;;;;;;;1.30;1.20;;;;;;;13.44;66.21;98646.69;10539340;28;20197;-76
2021/04/10 17:26:01;;;;;;;4.17;1.07;;;;;;;13.49;67.00;98648.16;10523752;28;20576;-75
2021/04/10 17:31:20;;;;;;;2.17;1.00;;;;;;;13.43;66.93;98634.06;10524147;28;20205;-75
2021/04/10 17:36:40;;;;;;;1.47;0.90;;;;;;;13.29;67.56;98625.31;10537695;28;20170;-76
2021/04/10 17:41:59;;;;;;;9.00;1.13;;;;;;;13.20;68.24;98636.16;10537566;28;20205;-75
2021/04/10 17:47:18;;;;;;;3.90;1.60;;;;;;;13.05;70.64;98640.41;10551659;28;20529;-75
2021/04/10 17:52:38;;;;;;;1.77;1.53;;;;;;;12.89;70.36;98645.88;10552287;28;20695;-76
2021/04/10 17:57:57;;;;;;;5.97;2.40;;;;;;;12.78;70.05;98635.03;10552590;28;20178;-76
2021/04/10 18:03:16;;;;;;;4.50;3.00;;;;;;;12.60;70.70;98624.75;10551498;28;20196;-76
2021/04/10 18:08:35;;;;;;;5.23;3.70;;;;;;;12.43;72.62;98621.13;10537098;28;20205;-75
2021/04/10 18:13:54;;;;;;;7.83;3.43;;;;;;;12.33;73.34;98613.03;10551948;28;20655;-75
2021/04/10 18:19:13;;;;;;;6.57;3.00;;;;;;;12.35;74.85;98624.41;10535695;28;20170;-75
2021/04/10 18:24:33;;;;;;;2.80;1.93;;;;;;;12.51;74.60;98625.31;10552072;28;20217;-76
2021/04/10 18:29:52;;;;;;;11.93;2.53;;;;;;;12.14;76.08;98628.34;10550566;28;20201;-75
2021/04/10 18:35:11;;;;;;;5.00;2.60;;;;;;;12.00;75.67;98609.28;10552042;28;20640;-76
2021/04/10 18:40:30;;;;;;;11.03;4.50;;;;;;;11.93;76.95;98614.91;10551974;28;20265;-75
2021/04/10 18:45:49;;;;;;;3.23;2.37;;;;;;;12.05;80.06;98621.81;10529414;28;20182;-75
2021/04/10 18:51:09;;;;;;;2.23;2.00;;;;;;;11.75;81.22;98612.88;10529343;28;20684;-76
2021/04/10 18:56:28;;;;;;;4.83;3.53;;;;;;;11.61;81.20;98604.84;10544749;28;20186;-75
2021/04/10 19:01:47;;;;;;;3.17;2.77;;;;;;;11.57;80.86;98607.63;10543445;28;20170;-74
2021/04/10 19:07:07;;;;;;;8.30;5.83;;;;;;;11.62;81.73;98618.19;10523155;28;20563;-75
2021/04/10 19:12:26;;;;;;;4.60;4.17;;;;;;;11.55;81.17;98607.28;10543813;28;20214;-75
2021/04/10 19:17:45;;;;;;;4.80;3.57;;;;;;;11.51;80.41;98603.75;10527304;28;20178;-75
2021/04/10 19:23:07;;;;;;;5.40;3.60;;;;;;;11.50;82.66;98604.16;10543682;28;20177;-77
2021/04/10 19:28:26;;;;;;;5.93;3.03;;;;;;;11.43;81.98;98598.78;10527554;28;20214;-75
2021/04/10 19:33:45;;;;;;;3.47;3.17;;;;;;;11.34;82.02;98595.75;10541761;28;20241;-75
2021/04/10 19:39:04;;;;;;;6.27;4.00;;;;;;;11.31;82.87;98597.38;10527978;28;20338;-75
2021/04/10 19:44:24;;;;;;;11.83;6.30;;;;;;;11.28;83.10;98594.66;10527532;28;20182;-75
2021/04/10 19:49:44;;;;;;;8.93;5.83;;;;;;;11.25;83.08;98592.75;10542510;28;20665;-75
2021/04/10 19:55:09;;;;;;;9.90;3.87;;;;;;;11.22;83.14;98593.59;10542325;28;20181;-75
2021/04/10 20:00:28;;;;;;;5.73;4.37;;;;;;;11.20;84.88;98590.47;10541212;28;20170;-75
2021/04/10 20:05:47;;;;;;;7.20;4.40;;;;;;;11.13;84.81;98577.56;10526692;28;20578;-76
2021/04/10 20:11:07;;;;;;;7.80;4.83;;;;;;;11.08;85.61;98573.72;10541794;28;20206;-76
2021/04/10 20:16:30;;;;;;;11.10;4.30;;;;;;;11.04;86.58;98576.53;10524880;28;20182;-76
2021/04/10 20:21:50;;;;;;;4.13;3.73;;;;;;;11.07;88.52;98577.66;10541162;28;20174;-76
2021/04/10 20:27:10;;;;;;;4.17;3.87;;;;;;;10.97;90.98;98570.34;10540432;28;20217;-76
2021/04/10 20:32:28;;;;;;;7.10;3.80;;;;;;;10.83;90.76;98559.53;10539148;28;20209;-75
2021/04/10 20:37:49;;;;;;;3.50;3.23;;;;;;;10.82;90.79;98557.97;10540574;28;20885;-75
2021/04/10 20:43:08;;;;;;;6.13;4.57;;;;;;;10.87;92.69;98549.22;10540650;28;20169;-76
2021/04/10 20:48:27;;;;;;;3.33;2.40;;;;;;;10.73;93.51;98550.22;10539148;28;20178;-75
2021/04/10 20:53:46;;;;;;;8.87;3.30;;;;;;;10.64;93.17;98552.69;10524265;28;20209;-76
2021/04/10 20:59:05;;;;;;;4.23;3.00;;;;;;;10.60;93.65;98540.94;10540192;28;20182;-76
2021/04/10 21:04:24;;;;;;;5.17;2.80;;;;;;;10.58;94.44;98537.06;10538395;28;20182;-76
2021/04/10 21:09:44;;;;;;;3.20;2.37;;;;;;;10.53;94.94;98529.28;10539194;28;20229;-75
2021/04/10 21:15:06;;;;;;;3.70;3.27;;;;;;;10.54;94.79;98539.09;10538335;28;20258;-76
2021/04/10 21:20:25;;;;;;;2.50;2.30;;;;;;;10.51;94.98;98529.66;10539376;28;20182;-77
2021/04/10 21:25:44;;;;;;;3.97;3.47;;;;;;;10.50;95.08;98521.84;10523677;28;20674;-75
2021/04/10 21:31:07;;;;;;;7.60;3.73;;;;;;;10.47;96.86;98525.41;10522356;28;20201;-76
2021/04/10 21:36:30;;;;;;;5.93;3.50;;;;;;;10.45;98.85;98520.31;10539193;28;20602;-75
2021/04/10 21:41:53;;;;;;;2.93;2.40;;;;;;;10.89;98.26;98527.59;10538954;28;20178;-74
2021/04/10 21:47:12;;;;;;;4.73;3.30;;;;;;;10.69;100.00;98518.44;10522372;28;20182;-75
2021/04/10 21:52:31;;;;;;;3.37;2.80;;;;;;;10.41;100.00;98511.34;10523034;28;20292;-76
2021/04/10 21:57:50;;;;;;;4.73;3.10;;;;;;;10.33;100.00;98506.34;10523356;28;20227;-76
2021/04/10 22:03:09;;;;;;;3.40;2.90;;;;;;;10.50;100.00;98513.59;10522130;28;20174;-75
2021/04/10 22:08:28;;;;;;;8.30;3.23;;;;;;;10.41;100.00;98514.09;10523188;28;20268;-74
2021/04/10 22:13:47;;;;;;;3.20;3.00;;;;;;;10.41;100.00;98516.84;10522162;28;20202;-75
2021/04/10 22:19:08;;;;;;;7.80;4.27;;;;;;;10.65;100.00;98512.19;10517400;28;20166;-74
2021/04/10 22:24:27;;;;;;;3.53;3.23;;;;;;;10.31;100.00;98502.44;10545858;28;20260;-75
2021/04/10 22:29:46;;;;;;;7.17;3.90;;;;;;;10.44;100.00;98512.50;10544483;28;20280;-74
2021/04/10 22:35:08;;;;;;;3.50;3.20;;;;;;;10.21;100.00;98503.34;10545784;28;20170;-75
2021/04/10 22:40:33;;;;;;;5.93;4.40;;;;;;;10.18;100.00;98493.19;10545483;28;20546;-75
2021/04/10 22:45:53;;;;;;;3.70;3.40;;;;;;;10.09;100.00;98484.66;10528744;28;20174;-74
2021/04/10 22:51:13;;;;;;;7.70;3.73;;;;;;;10.04;100.00;98482.34;10544908;28;20207;-76
2021/04/10 22:56:32;;;;;;;6.60;4.43;;;;;;;10.01;100.00;98483.16;10529584;28;20178;-74
2021/04/10 23:01:51;;;;;;;4.70;3.87;;;;;;;10.17;100.00;98483.38;10543501;28;20222;-74
2021/04/10 23:07:10;;;;;;;9.30;4.53;;;;;;;10.03;100.00;98478.03;10544450;28;20182;-75
2021/04/10 23:12:29;;;;;;;5.20;3.97;;;;;;;10.13;100.00;98477.94;10543884;28;20206;-74
2021/04/10 23:17:48;;;;;;;4.60;3.70;;;;;;;9.96;100.00;98475.31;10542803;28;20209;-75
2021/04/10 23:23:10;;;;;;;8.40;4.57;;;;;;;9.94;100.00;98469.44;10543911;28;20786;-74
2021/04/10 23:28:29;;;;;;;3.87;3.57;;;;;;;9.90;100.00;98465.97;10542720;28;20221;-76
2021/04/10 23:33:48;;;;;;;9.60;5.47;;;;;;;9.88;100.00;98460.91;10526269;28;20206;-76
2021/04/10 23:39:07;;;;;;;5.10;4.70;;;;;;;9.89;100.00;98464.41;10543231;28;20174;-76
2021/04/10 23:44:28;;;;;;;3.80;2.97;;;;;;;9.84;100.00;98453.88;10527591;28;20182;-76
2021/04/10 23:49:47;;;;;;;3.73;3.33;;;;;;;9.85;100.00;98461.72;10527290;28;20727;-75
2021/04/10 23:55:07;;;;;;;4.90;4.37;;;;;;;9.83;100.00;98455.84;10526781;28;20173;-76
